createdAt,value
2022-12-11T00:02:11.736Z,18.50
2022-12-11T00:04:41.348Z,18.65
2022-12-11T00:07:10.933Z,18.65
2022-12-11T00:09:40.819Z,19.38
2022-12-11T00:12:10.737Z,18.23
2022-12-11T00:14:40.275Z,19.45
2022-12-11T00:17:12.857Z,18.20
2022-12-11T00:19:42.552Z,17.50
2022-12-11T00:22:12.256Z,17.63
2022-12-11T00:24:41.842Z,17.42
2022-12-11T00:27:11.732Z,17.63
2022-12-11T00:29:41.356Z,18.02
2022-12-11T00:32:13.604Z,18.23
2022-12-11T00:34:43.257Z,17.67
2022-12-11T00:37:13.109Z,17.98
2022-12-11T00:39:42.729Z,17.33
2022-12-11T00:42:12.325Z,17.80
2022-12-11T00:44:41.913Z,18.50
2022-12-11T00:47:14.164Z,18.60
2022-12-11T00:49:49.416Z,18.13
2022-12-11T00:52:20.125Z,17.75
2022-12-11T00:54:49.714Z,17.70
2022-12-11T00:57:19.320Z,17.75
2022-12-11T00:59:48.952Z,17.65
2022-12-11T01:02:21.117Z,17.50
2022-12-11T01:04:50.747Z,17.60
2022-12-11T01:07:20.312Z,16.95
2022-12-11T01:10:02.403Z,16.98
2022-12-11T01:12:32.028Z,17.33
2022-12-11T01:15:01.652Z,16.63
2022-12-11T01:17:33.865Z,16.77
2022-12-11T01:20:04.304Z,16.98
2022-12-11T01:22:33.967Z,16.95
2022-12-11T01:25:03.777Z,16.92
2022-12-11T01:27:33.362Z,16.35
2022-12-11T01:30:03.184Z,16.65
2022-12-11T01:32:35.477Z,17.73
2022-12-11T01:35:05.986Z,16.67
2022-12-11T01:37:35.657Z,16.58
2022-12-11T01:40:05.932Z,16.83
2022-12-11T01:42:35.597Z,17.50
2022-12-11T01:45:33.343Z,17.08
2022-12-11T01:48:08.949Z,17.23
2022-12-11T01:50:41.473Z,17.10
2022-12-11T01:53:12.837Z,17.00
2022-12-11T01:55:42.442Z,16.88
2022-12-11T01:58:12.052Z,16.75
2022-12-11T02:00:41.623Z,17.00
2022-12-11T02:03:13.800Z,16.23
2022-12-11T02:05:43.384Z,16.48
2022-12-11T02:08:13.003Z,16.52
2022-12-11T02:10:50.436Z,16.25
2022-12-11T02:13:22.189Z,16.77
2022-12-11T02:15:53.345Z,17.52
2022-12-11T02:18:28.521Z,16.65
2022-12-11T02:21:01.354Z,16.42
2022-12-11T02:23:42.062Z,17.15
2022-12-11T02:26:25.191Z,16.65
2022-12-11T02:28:58.375Z,17.25
2022-12-11T02:31:30.753Z,16.88
2022-12-11T02:34:02.420Z,18.33
2022-12-11T02:36:33.142Z,18.30
2022-12-11T02:39:02.758Z,17.55
2022-12-11T02:41:32.489Z,16.73
2022-12-11T02:44:05.257Z,17.45
2022-12-11T02:46:35.062Z,17.35
2022-12-11T02:49:06.525Z,17.48
2022-12-11T02:51:37.463Z,17.48
2022-12-11T02:54:07.183Z,16.70
2022-12-11T02:56:39.466Z,19.02
2022-12-11T02:59:13.042Z,18.98
2022-12-11T03:01:42.689Z,17.67
2022-12-11T03:04:12.347Z,17.10
2022-12-11T03:06:44.494Z,16.67
2022-12-11T03:09:14.123Z,16.92
2022-12-11T03:11:43.757Z,16.60
2022-12-11T03:14:16.748Z,17.10
2022-12-11T03:16:50.480Z,17.17
2022-12-11T03:19:23.174Z,17.30
2022-12-11T03:21:55.244Z,16.92
2022-12-11T03:24:26.699Z,16.70
2022-12-11T03:27:00.956Z,16.27
2022-12-11T03:29:35.412Z,16.30
2022-12-11T03:32:07.866Z,16.58
2022-12-11T03:34:40.850Z,16.67
2022-12-11T03:37:10.531Z,17.00
2022-12-11T03:39:41.289Z,16.42
2022-12-11T03:42:11.514Z,16.45
2022-12-11T03:44:43.688Z,17.10
2022-12-11T03:47:13.318Z,16.95
2022-12-11T03:49:44.709Z,16.83
2022-12-11T03:52:15.217Z,17.15
2022-12-11T03:54:45.464Z,17.52
2022-12-11T03:57:16.201Z,17.05
2022-12-11T03:59:48.428Z,17.38
2022-12-11T04:02:18.275Z,17.15
2022-12-11T04:04:47.853Z,16.60
2022-12-11T04:07:17.482Z,17.33
2022-12-11T04:09:47.047Z,16.98
2022-12-11T04:12:16.633Z,16.75
2022-12-11T04:15:01.379Z,17.13
2022-12-11T04:17:46.365Z,16.48
2022-12-11T04:20:28.435Z,16.80
2022-12-11T04:23:10.534Z,16.52
2022-12-11T04:25:40.206Z,16.77
2022-12-11T04:28:09.853Z,17.02
2022-12-11T04:30:42.031Z,16.85
2022-12-11T04:33:11.638Z,16.75
2022-12-11T04:35:41.248Z,15.63
2022-12-11T04:38:10.856Z,17.25
2022-12-11T04:40:40.520Z,16.98
2022-12-11T04:43:10.197Z,17.63
2022-12-11T04:45:42.415Z,17.83
2022-12-11T04:48:12.043Z,17.10
2022-12-11T04:50:41.699Z,17.52
2022-12-11T04:53:11.305Z,18.13
2022-12-11T04:55:42.417Z,18.15
2022-12-11T04:58:12.087Z,17.75
2022-12-11T05:00:44.309Z,17.23
2022-12-11T05:03:13.998Z,16.92
2022-12-11T05:05:43.598Z,18.10
2022-12-11T05:08:13.272Z,17.33
2022-12-11T05:10:48.549Z,17.23
2022-12-11T05:13:19.624Z,18.00
2022-12-11T05:15:51.845Z,17.92
2022-12-11T05:18:21.502Z,18.02
2022-12-11T05:20:57.963Z,18.52
2022-12-11T05:23:27.600Z,18.13
2022-12-11T05:25:57.320Z,17.50
2022-12-11T05:28:27.509Z,17.73
2022-12-11T05:31:01.382Z,17.98
2022-12-11T05:33:31.224Z,17.90
2022-12-11T05:36:00.917Z,18.02
2022-12-11T05:38:30.508Z,17.33
2022-12-11T05:41:00.626Z,17.02
2022-12-11T05:43:30.688Z,17.60
2022-12-11T05:46:08.077Z,17.80
2022-12-11T05:48:37.677Z,18.08
2022-12-11T05:51:08.396Z,18.95
2022-12-11T05:53:38.419Z,18.65
2022-12-11T05:56:09.333Z,18.23
2022-12-11T05:58:39.017Z,18.02
2022-12-11T06:01:12.797Z,19.73
2022-12-11T06:03:42.381Z,18.30
2022-12-11T06:06:12.091Z,19.17
2022-12-11T06:08:41.719Z,18.60
2022-12-11T06:11:11.470Z,17.77
2022-12-11T06:13:41.049Z,19.00
2022-12-11T06:16:13.458Z,20.10
2022-12-11T06:18:44.004Z,23.83
2022-12-11T06:21:17.197Z,23.58
2022-12-11T06:23:47.079Z,23.13
2022-12-11T06:26:17.201Z,22.98
2022-12-11T06:28:46.848Z,21.77
2022-12-11T06:31:19.215Z,20.10
2022-12-11T06:33:48.957Z,20.50
2022-12-11T06:36:19.557Z,21.10
2022-12-11T06:38:49.415Z,20.77
2022-12-11T06:41:18.993Z,21.48
2022-12-11T06:43:48.591Z,20.23
2022-12-11T06:46:21.603Z,20.55
2022-12-11T06:48:51.468Z,20.17
2022-12-11T06:51:22.369Z,19.27
2022-12-11T06:53:53.809Z,19.23
2022-12-11T06:56:23.500Z,20.13
2022-12-11T06:58:53.204Z,20.92
2022-12-11T07:01:26.390Z,19.50
2022-12-11T07:03:56.207Z,19.67
2022-12-11T07:06:25.920Z,19.35
2022-12-11T07:08:55.739Z,18.70
2022-12-11T07:11:25.542Z,18.77
2022-12-11T07:13:55.101Z,18.50
2022-12-11T07:16:27.319Z,18.50
2022-12-11T07:18:56.925Z,18.55
2022-12-11T07:21:26.525Z,18.65
2022-12-11T07:23:56.105Z,19.35
2022-12-11T07:26:25.777Z,18.00
2022-12-11T07:28:56.091Z,18.58
2022-12-11T07:31:29.080Z,18.95
2022-12-11T07:33:58.797Z,20.20
2022-12-11T07:36:28.370Z,20.13
2022-12-11T07:38:58.234Z,20.02
2022-12-11T07:41:28.352Z,19.88
2022-12-11T07:43:58.048Z,20.90
2022-12-11T07:46:31.333Z,22.15
2022-12-11T07:49:00.924Z,21.02
2022-12-11T07:51:31.228Z,20.77
2022-12-11T07:54:02.042Z,21.15
2022-12-11T07:56:31.956Z,21.88
2022-12-11T07:59:02.021Z,20.48
2022-12-11T08:01:35.750Z,19.70
2022-12-11T08:04:05.501Z,19.13
2022-12-11T08:06:36.060Z,18.50
2022-12-11T08:09:06.926Z,19.48
2022-12-11T08:11:36.580Z,18.80
2022-12-11T08:14:06.742Z,18.95
2022-12-11T08:16:43.069Z,18.57
2022-12-11T08:19:13.424Z,18.92
2022-12-11T08:21:43.543Z,19.52
2022-12-11T08:24:14.702Z,19.40
2022-12-11T08:26:44.349Z,18.23
2022-12-11T08:29:13.948Z,18.73
2022-12-11T08:31:46.192Z,18.75
2022-12-11T08:34:15.788Z,17.95
2022-12-11T08:36:45.464Z,18.92
2022-12-11T08:39:15.080Z,19.17
2022-12-11T08:41:44.708Z,19.55
2022-12-11T08:44:16.932Z,19.38
2022-12-11T08:46:49.397Z,18.75
2022-12-11T08:49:18.952Z,18.35
2022-12-11T08:51:48.566Z,18.20
2022-12-11T08:54:18.134Z,17.75
2022-12-11T08:56:47.814Z,18.10
2022-12-11T08:59:17.379Z,17.70
2022-12-11T09:01:49.717Z,18.10
2022-12-11T09:04:19.506Z,17.77
2022-12-11T09:06:49.350Z,17.95
2022-12-11T09:09:18.990Z,18.75
2022-12-11T09:11:49.739Z,19.23
2022-12-11T09:14:19.291Z,19.73
2022-12-11T09:16:51.460Z,19.85
2022-12-11T09:19:20.998Z,19.33
2022-12-11T09:21:52.053Z,19.00
2022-12-11T09:26:50.962Z,19.55
2022-12-11T09:29:20.522Z,19.58
2022-12-11T09:31:52.732Z,19.52
2022-12-11T09:34:28.696Z,20.00
2022-12-11T09:36:59.574Z,18.10
2022-12-11T09:39:29.180Z,18.27
2022-12-11T09:42:00.903Z,18.60
2022-12-11T09:44:35.681Z,19.48
2022-12-11T09:47:12.409Z,19.15
2022-12-11T09:49:43.039Z,19.02
2022-12-11T09:52:15.576Z,19.23
2022-12-11T09:54:50.858Z,18.50
2022-12-11T09:57:35.194Z,18.33
2022-12-11T10:00:22.111Z,19.30
2022-12-11T10:03:28.531Z,19.02
2022-12-11T10:06:04.433Z,18.95
2022-12-11T10:08:36.263Z,19.92
2022-12-11T10:13:40.317Z,19.02
2022-12-11T10:16:14.914Z,18.83
2022-12-11T10:18:47.276Z,19.98
2022-12-11T10:21:16.798Z,19.05
2022-12-11T10:23:47.141Z,20.38
2022-12-11T10:26:19.245Z,20.77
2022-12-11T10:28:48.858Z,20.67
2022-12-11T10:31:20.157Z,21.83
2022-12-11T10:33:58.716Z,21.42
2022-12-11T10:36:30.763Z,20.63
2022-12-11T10:39:00.413Z,20.90
2022-12-11T10:41:36.869Z,21.15
2022-12-11T10:44:19.147Z,20.98
2022-12-11T10:46:48.776Z,21.55
2022-12-11T10:49:28.026Z,22.05
2022-12-11T10:51:57.532Z,22.05
2022-12-11T10:54:34.861Z,22.00
2022-12-11T10:57:04.884Z,22.65
2022-12-11T10:59:37.477Z,22.30
2022-12-11T11:02:07.364Z,21.17
2022-12-11T11:04:40.761Z,21.35
2022-12-11T11:07:15.408Z,21.75
2022-12-11T11:09:44.911Z,20.27
2022-12-11T11:12:21.952Z,19.42
2022-12-11T11:15:01.790Z,20.48
2022-12-11T11:17:34.959Z,21.75
2022-12-11T11:20:16.310Z,22.55
2022-12-11T11:22:47.599Z,22.23
2022-12-11T11:25:22.277Z,21.63
2022-12-11T11:27:53.313Z,22.40
2022-12-11T11:32:54.422Z,19.98
2022-12-11T11:35:28.221Z,21.50
2022-12-11T11:38:01.434Z,21.67
2022-12-11T11:40:32.571Z,21.05
2022-12-11T11:43:07.725Z,20.33
2022-12-11T11:45:40.666Z,21.15
2022-12-11T11:48:15.980Z,18.27
2022-12-11T11:50:50.608Z,18.73
2022-12-11T11:53:22.083Z,18.95
2022-12-11T11:55:55.752Z,17.38
2022-12-11T11:58:27.718Z,17.30
2022-12-11T12:00:57.555Z,18.30
2022-12-11T12:03:27.455Z,16.83
2022-12-11T12:06:03.842Z,16.55
2022-12-11T12:08:41.482Z,15.80
2022-12-11T12:11:14.496Z,16.83
2022-12-11T12:13:50.130Z,17.75
2022-12-11T12:16:51.657Z,17.98
2022-12-11T12:19:21.101Z,17.35
2022-12-11T12:21:54.886Z,17.45
2022-12-11T12:24:34.743Z,17.40
2022-12-11T12:27:51.059Z,17.77
2022-12-11T12:30:16.150Z,18.42
2022-12-11T12:32:53.537Z,18.40
2022-12-11T12:35:33.298Z,18.80
2022-12-11T12:38:09.493Z,18.52
2022-12-11T12:40:41.503Z,18.25
2022-12-11T12:43:33.632Z,17.33
2022-12-11T12:46:07.591Z,18.15
2022-12-11T12:48:37.114Z,18.73
2022-12-11T12:51:06.802Z,17.08
2022-12-11T12:53:38.960Z,17.95
2022-12-11T12:56:09.246Z,18.00
2022-12-11T12:58:44.862Z,18.40
2022-12-11T13:01:19.322Z,18.73
2022-12-11T13:03:53.861Z,19.17
2022-12-11T13:06:34.536Z,19.13
2022-12-11T13:09:18.532Z,20.23
2022-12-11T13:11:50.157Z,20.00
2022-12-11T13:14:31.981Z,19.73
2022-12-11T13:17:09.293Z,19.92
2022-12-11T13:19:42.509Z,21.33
2022-12-11T13:22:24.388Z,21.33
2022-12-11T13:25:04.842Z,21.90
2022-12-11T13:27:40.045Z,20.85
2022-12-11T13:30:24.467Z,22.15
2022-12-11T13:33:01.548Z,21.00
2022-12-11T13:35:31.266Z,21.42
2022-12-11T13:38:04.273Z,22.40
2022-12-11T13:40:41.212Z,22.02
2022-12-11T13:43:17.848Z,19.75
2022-12-11T13:45:49.492Z,21.67
2022-12-11T13:48:22.590Z,20.95
2022-12-11T13:50:52.565Z,22.15
2022-12-11T13:53:22.221Z,21.65
2022-12-11T13:56:01.776Z,21.13
2022-12-11T13:58:31.792Z,21.25
2022-12-11T14:01:11.155Z,23.58
2022-12-11T14:03:41.791Z,22.52
2022-12-11T14:06:18.224Z,21.80
2022-12-11T14:08:48.841Z,22.23
2022-12-11T14:11:24.339Z,22.40
2022-12-11T14:13:54.139Z,22.20
2022-12-11T14:16:24.788Z,22.83
2022-12-11T14:18:54.429Z,23.73
2022-12-11T14:21:25.019Z,22.80
2022-12-11T14:23:54.864Z,22.65
2022-12-11T14:26:27.821Z,21.23
2022-12-11T14:28:57.652Z,21.27
2022-12-11T14:31:29.970Z,22.50
2022-12-11T14:34:01.728Z,21.70
2022-12-11T14:36:31.226Z,22.45
2022-12-11T14:39:03.696Z,22.58
2022-12-11T14:41:38.129Z,21.70
2022-12-11T14:44:08.072Z,21.65
2022-12-11T14:46:39.456Z,21.73
2022-12-11T14:49:10.331Z,22.73
2022-12-11T14:51:41.821Z,21.75
2022-12-11T14:54:20.081Z,21.90
2022-12-11T14:56:52.434Z,19.77
2022-12-11T14:59:28.469Z,23.50
2022-12-11T15:02:02.119Z,19.92
2022-12-11T15:04:33.025Z,19.80
2022-12-11T15:07:02.604Z,18.95
2022-12-11T15:09:32.931Z,19.77
2022-12-11T15:12:19.523Z,19.30
2022-12-11T15:14:51.524Z,19.70
2022-12-11T15:17:21.302Z,19.70
2022-12-11T15:19:51.685Z,20.65
2022-12-11T15:22:21.263Z,20.52
2022-12-11T15:24:53.028Z,19.42
2022-12-11T15:27:37.025Z,19.00
2022-12-11T15:30:18.490Z,18.80
2022-12-11T15:32:48.126Z,19.05
2022-12-11T15:35:25.155Z,19.13
2022-12-11T15:37:55.005Z,19.08
2022-12-11T15:40:24.644Z,19.30
2022-12-11T15:42:57.479Z,20.90
2022-12-11T15:45:28.518Z,22.33
2022-12-11T15:50:31.852Z,20.98
2022-12-11T15:53:01.330Z,21.20
2022-12-11T15:55:34.887Z,20.77
2022-12-11T15:58:08.853Z,20.88
2022-12-11T16:00:38.373Z,20.90
2022-12-11T16:03:07.858Z,21.35
2022-12-11T16:05:37.326Z,22.00
2022-12-11T16:08:07.753Z,23.42
2022-12-11T16:10:37.635Z,26.48
2022-12-11T16:13:09.710Z,32.80
2022-12-11T16:15:39.910Z,27.70
2022-12-11T16:18:11.180Z,30.65
2022-12-11T16:20:40.960Z,29.50
2022-12-11T16:23:10.696Z,22.55
2022-12-11T16:25:40.886Z,21.83
2022-12-11T16:28:13.490Z,23.30
2022-12-11T16:30:43.558Z,22.35
2022-12-11T16:33:13.746Z,22.33
2022-12-11T16:35:43.375Z,22.77
2022-12-11T16:38:13.589Z,22.30
2022-12-11T16:40:43.300Z,22.27
2022-12-11T16:43:15.339Z,22.70
2022-12-11T16:45:44.796Z,22.38
2022-12-11T16:48:14.226Z,22.77
2022-12-11T16:50:43.680Z,22.00
2022-12-11T16:53:14.634Z,23.00
2022-12-11T16:55:44.310Z,22.10
2022-12-11T16:58:20.086Z,21.85
2022-12-11T17:00:49.614Z,22.05
2022-12-11T17:03:19.149Z,22.67
2022-12-11T17:05:48.628Z,21.88
2022-12-11T17:08:18.127Z,21.88
2022-12-11T17:10:47.633Z,21.55
2022-12-11T17:13:19.662Z,22.02
2022-12-11T17:15:49.135Z,21.90
2022-12-11T17:18:18.599Z,22.70
2022-12-11T17:20:48.067Z,22.63
2022-12-11T17:23:17.544Z,26.90
2022-12-11T17:25:47.447Z,23.20
2022-12-11T17:28:19.495Z,21.67
2022-12-11T17:30:50.160Z,21.50
2022-12-11T17:33:19.705Z,21.67
2022-12-11T17:35:49.250Z,22.15
2022-12-11T17:38:18.709Z,20.67
2022-12-11T17:40:48.588Z,21.50
2022-12-11T17:43:20.729Z,23.08
2022-12-11T17:45:52.460Z,21.70
2022-12-11T17:48:22.500Z,22.83
2022-12-11T17:50:52.830Z,21.67
2022-12-11T17:53:22.986Z,22.00
2022-12-11T17:55:52.826Z,21.77
2022-12-11T17:58:25.344Z,22.65
2022-12-11T18:00:55.757Z,22.63
2022-12-11T18:03:25.552Z,22.60
2022-12-11T18:05:56.369Z,23.00
2022-12-11T18:08:30.002Z,23.02
2022-12-11T18:10:59.751Z,22.77
2022-12-11T18:13:31.796Z,22.08
2022-12-11T18:16:04.782Z,22.27
2022-12-11T18:18:34.341Z,22.77
2022-12-11T18:21:04.005Z,22.85
2022-12-11T18:23:33.518Z,22.63
2022-12-11T18:26:03.005Z,22.48
2022-12-11T18:28:35.090Z,22.55
2022-12-11T18:31:04.717Z,21.77
2022-12-11T18:33:34.369Z,23.17
2022-12-11T18:36:04.099Z,22.10
2022-12-11T18:38:33.623Z,22.02
2022-12-11T18:41:04.943Z,22.92
2022-12-11T18:43:37.086Z,22.60
2022-12-11T18:46:08.423Z,22.50
2022-12-11T18:48:38.023Z,21.88
2022-12-11T18:51:09.384Z,22.98
2022-12-11T18:53:39.227Z,22.55
2022-12-11T18:56:09.810Z,22.50
2022-12-11T18:58:41.855Z,22.67
2022-12-11T19:01:11.906Z,22.65
2022-12-11T19:03:41.446Z,22.93
2022-12-11T19:06:11.970Z,23.23
2022-12-11T19:08:41.473Z,23.15
2022-12-11T19:11:11.057Z,23.02
2022-12-11T19:13:43.921Z,30.15
2022-12-11T19:16:18.447Z,27.38
2022-12-11T19:18:48.048Z,25.73
2022-12-11T19:21:18.122Z,25.83
2022-12-11T19:23:47.861Z,25.50
2022-12-11T19:26:18.468Z,25.13
2022-12-11T19:28:51.239Z,26.35
2022-12-11T19:31:21.627Z,24.35
2022-12-11T19:33:51.184Z,24.02
2022-12-11T19:36:21.678Z,24.15
2022-12-11T19:38:51.223Z,23.17
2022-12-11T19:41:21.954Z,24.85
2022-12-11T19:43:54.394Z,28.77
2022-12-11T19:46:24.042Z,23.92
2022-12-11T19:48:54.152Z,28.50
2022-12-11T19:51:24.881Z,29.17
2022-12-11T19:53:54.367Z,28.92
2022-12-11T19:56:24.019Z,28.45
2022-12-11T19:58:56.059Z,23.42
2022-12-11T20:01:28.849Z,25.63
2022-12-11T20:03:59.595Z,22.95
2022-12-11T20:06:29.996Z,24.25
2022-12-11T20:08:59.611Z,23.88
2022-12-11T20:11:29.118Z,24.27
2022-12-11T20:14:01.283Z,23.65
2022-12-11T20:17:01.680Z,22.45
2022-12-11T20:19:20.288Z,23.63
2022-12-11T20:21:49.752Z,22.80
2022-12-11T20:24:19.226Z,23.67
2022-12-11T20:26:49.203Z,23.58
2022-12-11T20:29:21.262Z,23.73
2022-12-11T20:31:52.640Z,25.38
2022-12-11T20:34:23.079Z,24.63
2022-12-11T20:36:54.607Z,23.25
2022-12-11T20:39:24.117Z,23.17
2022-12-11T20:41:53.579Z,24.25
2022-12-11T20:44:25.923Z,27.15
2022-12-11T20:46:55.395Z,24.75
2022-12-11T20:49:24.892Z,25.38
2022-12-11T20:51:54.387Z,22.88
2022-12-11T20:54:23.873Z,24.05
2022-12-11T20:56:53.347Z,23.98
2022-12-11T20:59:26.107Z,23.92
2022-12-11T21:01:55.963Z,28.83
2022-12-11T21:04:25.696Z,25.27
2022-12-11T21:06:55.438Z,23.75
2022-12-11T21:09:26.535Z,22.65
2022-12-11T21:14:27.860Z,22.70
2022-12-11T21:16:57.380Z,23.42
2022-12-11T21:19:26.900Z,24.30
2022-12-11T21:21:56.387Z,23.73
2022-12-11T21:24:27.382Z,23.08
2022-12-11T21:29:30.044Z,22.67
2022-12-11T21:31:59.635Z,23.05
2022-12-11T21:34:29.717Z,22.98
2022-12-11T21:36:59.322Z,23.98
2022-12-11T21:39:29.316Z,24.40
2022-12-11T21:41:58.803Z,23.45
2022-12-11T21:47:20.306Z,23.02
2022-12-11T21:49:49.801Z,22.83
2022-12-11T21:52:19.666Z,23.17
2022-12-11T21:54:49.310Z,22.98
2022-12-11T21:57:22.822Z,23.20
2022-12-11T21:59:58.068Z,22.42
2022-12-11T22:02:27.643Z,23.05
2022-12-11T22:04:57.145Z,22.58
2022-12-11T22:07:27.639Z,23.23
2022-12-11T22:09:58.003Z,23.50
2022-12-11T22:12:29.151Z,23.02
2022-12-11T22:15:01.195Z,24.90
2022-12-11T22:17:31.656Z,24.73
2022-12-11T22:20:01.339Z,23.35
2022-12-11T22:22:30.791Z,23.38
2022-12-11T22:25:00.301Z,24.67
2022-12-11T22:27:29.768Z,22.73
2022-12-11T22:30:01.788Z,22.85
2022-12-11T22:32:31.268Z,23.45
2022-12-11T22:35:00.875Z,22.58
2022-12-11T22:37:30.347Z,23.73
2022-12-11T22:39:59.782Z,23.75
2022-12-11T22:42:29.271Z,22.48
2022-12-11T22:45:01.300Z,22.38
2022-12-11T22:47:30.798Z,23.23
2022-12-11T22:50:00.224Z,23.13
2022-12-11T22:52:29.894Z,22.23
2022-12-11T22:54:59.361Z,23.65
2022-12-11T22:57:28.855Z,22.88
2022-12-11T23:00:00.911Z,23.02
2022-12-11T23:02:30.380Z,23.60
2022-12-11T23:04:59.843Z,23.40
2022-12-11T23:07:29.757Z,23.08
2022-12-11T23:09:59.262Z,23.08
2022-12-11T23:12:28.737Z,22.15
2022-12-11T23:15:00.761Z,22.00
2022-12-11T23:17:30.279Z,21.98
2022-12-11T23:20:00.473Z,23.52
2022-12-11T23:22:29.973Z,23.70
2022-12-11T23:24:59.432Z,23.00
2022-12-11T23:27:28.917Z,23.85
2022-12-11T23:30:00.932Z,23.25
2022-12-11T23:32:30.370Z,23.50
2022-12-11T23:34:59.832Z,21.50
2022-12-11T23:37:29.315Z,22.58
2022-12-11T23:39:59.004Z,23.15
2022-12-11T23:42:28.521Z,23.77
2022-12-11T23:44:58.067Z,23.45
2022-12-11T23:47:30.134Z,23.67
2022-12-11T23:49:59.587Z,22.77
2022-12-11T23:52:29.193Z,22.98
2022-12-11T23:54:58.691Z,23.08
2022-12-11T23:57:28.160Z,23.05
2022-12-11T23:59:57.603Z,21.48
